Airfield :
LOGIN :

Register | Disclaimer

   EN    FR    IT 

 










Legend :    VFR   Marginal VFR   IFR   Intensive IFR   Very Intensive IFR
Visi :
Ceiling :
>= 8 km
>= 3000ft
5 to 8 km
1000 to 3000 ft
1500m to 5 km
500 to 1000 ft
800 to 1500m
200 to 500 ft
< 800m
< 200 ft
Symbols :   Thunderstorms  Fog  Heavy snow  Heavy precipitations  Wind > 20 kt
SIGMETs :     Misc.  Thunderstorms  Icing  Turbulence  Mountain Waves  Volcanic Ashes






- Airport Elevation : 3 ft
- IATA code : DHR


EHKD - Den Helder De Kooy

CURRENT METAR :
  • 251725Z AUTO 25016KT 220V280 9999 FEW010 FEW015CB BKN050 BKN059 04/02 Q1005 BLU

EXPIRED METARs :
  • 251714Z AUTO 25016KT 9999 FEW014 FEW015CB SCT042 BKN046 04/02 Q1005 BLU
  • 251655Z AUTO 26015G26KT 9999 -DZ FEW015CB BKN020 BKN025 04/02 Q1005 REDZ WHT
  • 251625Z AUTO 25011KT 220V280 9999 FEW013 BKN016 BKN020 04/02 Q1005 REDZ WHT TEMPO 4000 -SHRA SCT015CB BKN020
  • 251606Z AUTO 25017KT 220V280 4300 -SHRA +DZ SCT016 BKN021 OVC027 03/01 Q1005 GRN TEMPO 4000 -SHRA SCT015CB BKN020
  • 251555Z AUTO 25015KT 220V280 9999 -DZ SCT016 BKN020 BKN025 04/01 Q1005 WHT NOSIG
  • 251529Z AUTO 26014KT 9999 -UP SCT018 SCT026 BKN034 05/01 Q1005 WHT NOSIG
  • 251512Z AUTO 25014KT 230V290 9999 FEW017 SCT048 BKN070 05/01 Q1005 BLU NOSIG
  • 251455Z AUTO 25015KT 9999 FEW020 SCT024 BKN029 05/01 Q1005 WHT BECMG 27020G30KT SCT015 BKN020
  • 251440Z AUTO 26014KT 9999 FEW021 SCT024 BKN074 05/01 Q1005 WHT BECMG 27020G30KT SCT015 BKN020

TAF TAF EHKD
Valid from the 25 at 14:00 until the 26 at 02:00 UTC


251348Z 2514/2602 25012G23KT 9999 SCT030
BECMG 2515/2517 27020G30KT SCT015 BKN020
TEMPO 2516/2602 25025G40KT 3000 RA SHRASN SCT005 SCT008 SCT012CB
PROB40
TEMPO 2516/2601 2000 TSRASN



MET'MAP, your aeronautical weather chart ! - Copyright ORBIFLY December 2007 - Disclaimer

ORBIFLY MET'MAP TEAM :

Programming & Development : Alexandra Zaïnal
Concept & original design : Baudouin d'Aumeries
Assistance for programming : Marc-Olivier Méhu
Technical & hardware support : Manuel Goepfert

Contact : metmap@orbifly.com




SOURCES & CREDITS :

   NOAA